createdAt,value
2022-07-25T00:00:11.679Z,100989.69
2022-07-25T00:02:40.480Z,100990.41
2022-07-25T00:05:09.777Z,100953.69
2022-07-25T00:07:39.988Z,100991.50
2022-07-25T00:10:09.914Z,100982.06
2022-07-25T00:12:38.818Z,100986.50
2022-07-25T00:15:08.682Z,100989.22
2022-07-25T00:17:37.511Z,100983.59
2022-07-25T00:20:07.521Z,100976.91
2022-07-25T00:22:36.558Z,100980.78
2022-07-25T00:25:07.683Z,100979.53
2022-07-25T00:27:36.444Z,100978.31
2022-07-25T00:30:06.531Z,100977.47
2022-07-25T00:32:35.368Z,100970.16
2022-07-25T00:35:05.971Z,100967.44
2022-07-25T00:37:34.831Z,100940.78
2022-07-25T00:40:03.737Z,100962.44
2022-07-25T00:42:34.320Z,100959.94
2022-07-25T00:45:03.158Z,100958.09
2022-07-25T00:47:31.874Z,100958.53
2022-07-25T00:50:00.803Z,100956.47
2022-07-25T00:52:29.660Z,100953.34
2022-07-25T00:54:58.632Z,100963.00
2022-07-25T00:57:28.389Z,100958.84
2022-07-25T00:59:58.820Z,100955.94
2022-07-25T01:02:27.830Z,100948.44
2022-07-25T01:04:57.389Z,100947.59
2022-07-25T01:07:27.362Z,100956.81
2022-07-25T01:09:56.656Z,100952.44
2022-07-25T01:12:25.629Z,100951.59
2022-07-25T01:14:54.517Z,100962.69
2022-07-25T01:17:24.708Z,100964.59
2022-07-25T01:19:54.008Z,100963.31
2022-07-25T01:22:24.204Z,100924.69
2022-07-25T01:24:53.019Z,100973.38
2022-07-25T01:27:21.802Z,100968.16
2022-07-25T01:29:50.712Z,100977.16
2022-07-25T01:32:20.494Z,100935.78
2022-07-25T01:34:49.280Z,100976.72
2022-07-25T01:37:19.158Z,100979.03
2022-07-25T01:39:49.433Z,100978.22
2022-07-25T01:42:18.228Z,100971.31
2022-07-25T01:44:47.182Z,100941.88
2022-07-25T01:47:17.475Z,100970.69
2022-07-25T01:49:46.480Z,100972.75
2022-07-25T01:52:15.785Z,100973.56
2022-07-25T01:54:44.632Z,100970.19
2022-07-25T01:57:14.844Z,100969.50
2022-07-25T01:59:45.678Z,100975.16
2022-07-25T02:02:14.483Z,100973.66
2022-07-25T02:04:43.516Z,100972.59
2022-07-25T02:07:12.361Z,100973.22
2022-07-25T02:09:41.631Z,100970.06
2022-07-25T02:12:10.913Z,100972.97
2022-07-25T02:14:41.278Z,100968.72
2022-07-25T02:17:10.145Z,100970.16
2022-07-25T02:19:39.228Z,100969.34
2022-07-25T02:22:09.466Z,100966.78
2022-07-25T02:24:38.622Z,100961.34
2022-07-25T02:27:07.523Z,100965.28
2022-07-25T02:29:37.070Z,100967.81
2022-07-25T02:32:08.207Z,100966.31
2022-07-25T02:34:37.138Z,100966.47
2022-07-25T02:37:06.004Z,100962.00
2022-07-25T02:39:34.952Z,100958.84
2022-07-25T02:42:03.785Z,100953.16
2022-07-25T02:44:32.667Z,100951.28
2022-07-25T02:47:01.432Z,100945.81
2022-07-25T02:49:31.838Z,100949.16
2022-07-25T03:00:25.203Z,100937.09
2022-07-25T03:02:54.197Z,100942.63
2022-07-25T03:05:24.557Z,100901.88
2022-07-25T03:07:53.712Z,100941.66
2022-07-25T03:10:23.553Z,100944.53
2022-07-25T03:12:52.482Z,100938.03
2022-07-25T03:15:21.210Z,100939.69
2022-07-25T03:17:50.125Z,100944.53
2022-07-25T03:20:18.919Z,100944.75
2022-07-25T03:22:49.311Z,100940.13
2022-07-25T03:25:21.853Z,100945.81
2022-07-25T03:27:51.954Z,100940.13
2022-07-25T03:30:21.091Z,100934.69
2022-07-25T03:32:49.940Z,100933.00
2022-07-25T03:35:18.796Z,100930.50
2022-07-25T03:37:49.324Z,100934.69
2022-07-25T03:40:18.218Z,100942.66
2022-07-25T03:42:47.046Z,100947.03
2022-07-25T03:45:16.986Z,100956.91
2022-07-25T03:47:45.951Z,100964.84
2022-07-25T03:50:15.968Z,100969.88
2022-07-25T03:52:44.829Z,100975.94
2022-07-25T03:55:15.141Z,100982.84
2022-07-25T03:57:44.123Z,100981.56
2022-07-25T04:00:13.820Z,100982.53
2022-07-25T04:02:42.852Z,100975.56
2022-07-25T04:05:12.135Z,100940.91
2022-07-25T04:07:41.284Z,100985.06
2022-07-25T04:10:11.897Z,100978.72
2022-07-25T04:12:42.321Z,100948.38
2022-07-25T04:15:12.753Z,100980.41
2022-07-25T04:17:41.630Z,100985.31
2022-07-25T04:20:11.378Z,100965.44
2022-07-25T04:22:44.836Z,100978.09
2022-07-25T04:25:15.634Z,100979.75
2022-07-25T04:27:45.933Z,100975.75
2022-07-25T04:30:24.550Z,100983.25
2022-07-25T04:32:54.302Z,100931.69
2022-07-25T04:35:23.114Z,100981.28
2022-07-25T04:37:52.119Z,100982.78
2022-07-25T04:40:21.067Z,100977.56
2022-07-25T04:42:51.401Z,100977.69
2022-07-25T04:45:20.298Z,100976.19
2022-07-25T04:47:49.426Z,100975.13
2022-07-25T04:50:24.555Z,100974.75
2022-07-25T04:52:53.867Z,100977.56
2022-07-25T04:55:22.856Z,100966.41
2022-07-25T04:57:53.231Z,100868.22
2022-07-25T05:00:24.087Z,100965.78
2022-07-25T05:02:53.989Z,100959.72
2022-07-25T05:05:22.968Z,100968.38
2022-07-25T05:07:52.524Z,100970.66
2022-07-25T05:10:21.393Z,100967.91
2022-07-25T05:12:50.267Z,100965.56
2022-07-25T05:15:20.649Z,100967.59
2022-07-25T05:17:49.827Z,100980.81
2022-07-25T05:20:18.740Z,100979.25
2022-07-25T05:22:47.581Z,100975.47
2022-07-25T05:25:16.562Z,100978.19
2022-07-25T05:27:45.591Z,100942.13
2022-07-25T05:30:15.657Z,100978.34
2022-07-25T05:32:45.903Z,100966.34
2022-07-25T05:35:14.805Z,100974.31
2022-07-25T05:37:43.723Z,100971.72
2022-07-25T05:40:13.681Z,100979.41
2022-07-25T05:42:42.447Z,100970.38
2022-07-25T05:45:11.861Z,100972.56
2022-07-25T05:47:40.824Z,100975.22
2022-07-25T05:50:11.734Z,100965.50
2022-07-25T05:52:40.558Z,100972.75
2022-07-25T05:55:09.872Z,100971.47
2022-07-25T05:57:38.820Z,100970.03
2022-07-25T06:00:09.707Z,100945.28
2022-07-25T06:02:38.727Z,100927.63
2022-07-25T06:05:07.991Z,100966.66
2022-07-25T06:07:38.239Z,100970.28
2022-07-25T06:10:07.745Z,100964.09
2022-07-25T06:12:36.904Z,100968.94
2022-07-25T06:15:06.588Z,100954.13
2022-07-25T06:17:35.426Z,100961.28
2022-07-25T06:20:04.684Z,100965.56
2022-07-25T06:22:34.540Z,100960.72
2022-07-25T06:25:05.236Z,100969.34
2022-07-25T06:27:34.136Z,100964.69
2022-07-25T06:30:04.113Z,100964.91
2022-07-25T06:32:33.111Z,100962.66
2022-07-25T06:35:02.306Z,100967.59
2022-07-25T06:37:31.141Z,100968.34
2022-07-25T06:39:59.985Z,100968.34
2022-07-25T06:42:31.641Z,100964.44
2022-07-25T06:45:00.649Z,100970.31
2022-07-25T06:47:32.896Z,100975.28
2022-07-25T06:50:04.888Z,100969.53
2022-07-25T06:52:37.384Z,100974.19
2022-07-25T06:55:08.106Z,100972.50
2022-07-25T06:57:39.439Z,100972.50
2022-07-25T07:00:11.286Z,100972.16
2022-07-25T07:02:50.409Z,100966.59
2022-07-25T07:05:19.678Z,100966.56
2022-07-25T07:07:48.507Z,100965.63
2022-07-25T07:10:18.399Z,100955.16
2022-07-25T07:12:48.869Z,100963.94
2022-07-25T07:15:18.896Z,100958.47
2022-07-25T07:17:47.716Z,100952.78
2022-07-25T07:20:20.301Z,100932.44
2022-07-25T07:22:51.872Z,100944.25
2022-07-25T07:25:24.153Z,100953.88
2022-07-25T07:27:59.443Z,100947.38
2022-07-25T07:30:52.194Z,100956.91
2022-07-25T07:33:17.572Z,100959.31
2022-07-25T07:35:46.870Z,100952.66
2022-07-25T07:38:18.168Z,100959.41
2022-07-25T07:40:47.046Z,100957.78
2022-07-25T07:43:17.291Z,100958.34
2022-07-25T07:45:46.449Z,100955.00
2022-07-25T07:48:15.284Z,100949.78
2022-07-25T07:50:44.239Z,100949.91
2022-07-25T07:53:13.619Z,100953.84
2022-07-25T07:55:44.534Z,100945.06
2022-07-25T07:58:15.910Z,100951.22
2022-07-25T08:00:48.476Z,100951.25
2022-07-25T08:03:20.659Z,100947.84
2022-07-25T08:05:52.065Z,100953.00
2022-07-25T08:08:21.359Z,100949.72
2022-07-25T08:10:55.656Z,100942.81
2022-07-25T08:13:30.878Z,100942.91
2022-07-25T08:16:03.555Z,100919.66
2022-07-25T08:18:33.990Z,100928.31
2022-07-25T08:21:06.437Z,100932.72
2022-07-25T08:23:38.462Z,100930.94
2022-07-25T08:26:07.826Z,100929.94
2022-07-25T08:28:36.548Z,100925.38
2022-07-25T08:31:07.137Z,100920.78
2022-07-25T08:33:36.070Z,100928.59
2022-07-25T08:36:05.174Z,100923.78
2022-07-25T08:38:35.596Z,100923.88
2022-07-25T08:41:05.395Z,100928.22
2022-07-25T08:43:35.226Z,100925.53
2022-07-25T08:46:06.732Z,100924.25
2022-07-25T08:48:39.180Z,100934.38
2022-07-25T08:51:09.856Z,100931.91
2022-07-25T08:53:39.232Z,100932.03
2022-07-25T08:56:14.604Z,100910.06
2022-07-25T08:58:46.403Z,100927.47
2022-07-25T09:01:15.786Z,100926.44
2022-07-25T09:03:46.708Z,100921.41
2022-07-25T09:06:18.192Z,100925.53
2022-07-25T09:08:54.891Z,100921.03
2022-07-25T09:11:31.451Z,100921.22
2022-07-25T09:14:02.414Z,100923.28
2022-07-25T09:16:32.933Z,100922.06
2022-07-25T09:19:14.064Z,100926.22
2022-07-25T09:21:45.511Z,100921.81
2022-07-25T09:24:17.679Z,100929.50
2022-07-25T09:26:48.937Z,100930.94
2022-07-25T09:29:23.132Z,100921.47
2022-07-25T09:31:52.792Z,100889.88
2022-07-25T09:34:39.028Z,100918.53
2022-07-25T09:37:09.544Z,100911.56
2022-07-25T09:39:45.929Z,100913.06
2022-07-25T09:42:23.850Z,100915.94
2022-07-25T09:45:05.349Z,100917.47
2022-07-25T09:47:37.314Z,100917.41
2022-07-25T09:50:09.886Z,100925.75
2022-07-25T09:52:39.824Z,100919.47
2022-07-25T09:55:11.147Z,100920.28
2022-07-25T09:57:40.129Z,100912.22
2022-07-25T10:00:13.071Z,100908.13
2022-07-25T10:02:54.139Z,100908.94
2022-07-25T10:05:33.849Z,100912.13
2022-07-25T10:08:06.967Z,100906.63
2022-07-25T10:10:40.116Z,100896.28
2022-07-25T10:13:12.116Z,100875.03
2022-07-25T10:15:49.032Z,100894.53
2022-07-25T10:18:19.990Z,100893.94
2022-07-25T10:20:53.292Z,100888.16
2022-07-25T10:23:24.390Z,100891.41
2022-07-25T10:26:05.312Z,100886.78
2022-07-25T10:28:39.900Z,100891.34
2022-07-25T10:31:23.660Z,100891.72
2022-07-25T10:33:58.381Z,100882.91
2022-07-25T10:36:33.909Z,100880.81
2022-07-25T10:39:03.426Z,100885.84
2022-07-25T10:41:32.258Z,100887.25
2022-07-25T10:44:04.602Z,100880.66
2022-07-25T10:46:36.898Z,100840.00
2022-07-25T10:49:08.265Z,100856.47
2022-07-25T10:51:41.795Z,100855.38
2022-07-25T10:54:15.875Z,100859.34
2022-07-25T10:56:54.690Z,100840.31
2022-07-25T10:59:35.643Z,100862.38
2022-07-25T11:02:05.557Z,100867.44
2022-07-25T11:04:34.713Z,100864.50
2022-07-25T11:07:11.972Z,100858.25
2022-07-25T11:09:41.581Z,100855.78
2022-07-25T11:12:11.085Z,100853.59
2022-07-25T11:14:41.665Z,100841.47
2022-07-25T11:17:14.830Z,100842.97
2022-07-25T11:19:44.802Z,100843.94
2022-07-25T11:22:17.608Z,100837.56
2022-07-25T11:24:48.620Z,100835.59
2022-07-25T11:27:23.567Z,100832.94
2022-07-25T11:29:52.890Z,100830.47
2022-07-25T11:32:22.349Z,100826.53
2022-07-25T11:34:56.481Z,100830.25
2022-07-25T11:37:26.991Z,100826.47
2022-07-25T11:39:56.435Z,100826.47
2022-07-25T11:42:27.659Z,100815.13
2022-07-25T11:44:56.435Z,100811.19
2022-07-25T11:47:27.595Z,100804.13
2022-07-25T11:49:58.382Z,100789.16
2022-07-25T11:52:31.303Z,100807.91
2022-07-25T11:55:02.344Z,100696.03
2022-07-25T11:57:33.984Z,100803.66
2022-07-25T12:00:03.917Z,100797.19
2022-07-25T12:02:39.069Z,100801.56
2022-07-25T12:05:10.315Z,100775.28
2022-07-25T12:07:44.800Z,100793.53
2022-07-25T12:10:17.204Z,100785.88
2022-07-25T12:12:48.951Z,100782.25
2022-07-25T12:15:20.979Z,100779.66
2022-07-25T12:17:50.863Z,100779.16
2022-07-25T12:20:21.164Z,100772.56
2022-07-25T12:22:52.634Z,100765.31
2022-07-25T12:25:24.388Z,100752.31
2022-07-25T12:27:56.669Z,100762.09
2022-07-25T12:30:25.697Z,100734.31
2022-07-25T12:32:55.077Z,100755.25
2022-07-25T12:35:24.418Z,100749.66
2022-07-25T12:37:55.180Z,100742.19
2022-07-25T12:40:24.800Z,100740.47
2022-07-25T12:42:53.576Z,100742.50
2022-07-25T12:45:23.390Z,100739.91
2022-07-25T12:47:52.511Z,100743.66
2022-07-25T12:50:22.369Z,100732.59
2022-07-25T12:52:51.218Z,100735.09
2022-07-25T12:55:22.110Z,100723.81
2022-07-25T12:57:51.552Z,100720.50
2022-07-25T13:00:22.141Z,100711.78
2022-07-25T13:02:53.403Z,100714.91
2022-07-25T13:05:22.583Z,100702.09
2022-07-25T13:07:51.696Z,100700.59
2022-07-25T13:10:22.154Z,100696.50
2022-07-25T13:12:51.160Z,100696.97
2022-07-25T13:15:22.528Z,100695.03
2022-07-25T13:17:51.856Z,100700.03
2022-07-25T13:20:20.599Z,100695.31
2022-07-25T13:22:49.485Z,100699.00
2022-07-25T13:25:18.623Z,100696.94
2022-07-25T13:27:49.889Z,100692.03
2022-07-25T13:30:18.822Z,100685.81
2022-07-25T13:32:47.545Z,100679.16
2022-07-25T13:35:20.223Z,100681.00
2022-07-25T13:37:49.866Z,100670.53
2022-07-25T13:40:18.789Z,100669.97
2022-07-25T13:42:49.204Z,100659.22
2022-07-25T13:45:18.241Z,100660.03
2022-07-25T13:47:50.261Z,100663.91
2022-07-25T13:50:30.045Z,100653.78
2022-07-25T13:52:59.554Z,100647.72
2022-07-25T13:55:28.366Z,100647.84
2022-07-25T13:57:58.681Z,100635.25
2022-07-25T14:00:27.540Z,100644.66
2022-07-25T14:02:56.393Z,100630.69
2022-07-25T14:05:25.391Z,100639.16
2022-07-25T14:07:54.415Z,100637.94
2022-07-25T14:10:23.210Z,100630.66
2022-07-25T14:12:52.041Z,100641.84
2022-07-25T14:15:23.409Z,100643.53
2022-07-25T14:17:52.544Z,100643.03
2022-07-25T14:20:21.404Z,100642.00
2022-07-25T14:22:50.276Z,100647.13
2022-07-25T14:25:19.072Z,100643.75
2022-07-25T14:27:48.255Z,100641.22
2022-07-25T14:30:19.321Z,100647.19
2022-07-25T14:32:49.654Z,100640.53
2022-07-25T14:35:18.587Z,100640.63
2022-07-25T14:37:47.658Z,100644.97
2022-07-25T14:40:16.542Z,100634.84
2022-07-25T14:42:45.606Z,100642.66
2022-07-25T14:45:15.073Z,100635.47
2022-07-25T14:47:44.044Z,100634.88
2022-07-25T14:50:14.365Z,100629.47
2022-07-25T14:52:43.307Z,100626.03
2022-07-25T14:55:12.121Z,100624.44
2022-07-25T14:57:41.079Z,100625.25
2022-07-25T15:00:11.564Z,100624.94
2022-07-25T15:02:40.771Z,100622.00
2022-07-25T15:05:10.021Z,100632.69
2022-07-25T15:07:40.619Z,100622.69
2022-07-25T15:10:10.131Z,100629.41
2022-07-25T15:12:38.976Z,100640.22
2022-07-25T15:15:08.791Z,100658.41
2022-07-25T15:17:37.705Z,100657.44
2022-07-25T15:20:07.510Z,100660.16
2022-07-25T15:22:36.411Z,100675.19
2022-07-25T15:25:37.238Z,100683.84
2022-07-25T15:27:56.267Z,100700.44
2022-07-25T15:30:29.260Z,100712.50
2022-07-25T15:32:58.449Z,100719.59
2022-07-25T15:35:27.199Z,100727.94
2022-07-25T15:37:56.116Z,100740.84
2022-07-25T15:40:26.470Z,100754.28
2022-07-25T15:42:55.274Z,100762.91
2022-07-25T15:45:33.160Z,100774.47
2022-07-25T15:48:03.910Z,100782.00
2022-07-25T15:50:32.737Z,100798.56
2022-07-25T15:53:01.973Z,100778.19
2022-07-25T15:55:32.624Z,100781.13
2022-07-25T15:58:02.447Z,100777.44
2022-07-25T16:00:31.454Z,100761.59
2022-07-25T16:03:00.224Z,100752.69
2022-07-25T16:05:29.945Z,100738.00
2022-07-25T16:08:01.117Z,100722.91
2022-07-25T16:10:32.212Z,100691.59
2022-07-25T16:13:01.484Z,100698.38
2022-07-25T16:15:30.404Z,100691.47
2022-07-25T16:18:02.535Z,100687.78
2022-07-25T16:20:32.484Z,100681.25
2022-07-25T16:23:01.469Z,100672.81
2022-07-25T16:25:32.275Z,100675.91
2022-07-25T16:28:01.394Z,100668.84
2022-07-25T16:30:30.319Z,100676.59
2022-07-25T16:32:59.223Z,100660.59
2022-07-25T16:35:28.022Z,100650.97
2022-07-25T16:37:56.902Z,100641.84
2022-07-25T16:40:30.239Z,100627.47
2022-07-25T16:43:01.147Z,100624.13
2022-07-25T16:45:30.776Z,100625.19
2022-07-25T16:47:59.629Z,100601.66
2022-07-25T16:50:28.408Z,100581.44
2022-07-25T16:52:57.303Z,100562.63
2022-07-25T16:55:26.112Z,100548.78
2022-07-25T16:57:55.322Z,100543.78
2022-07-25T17:00:25.628Z,100552.59
2022-07-25T17:02:54.437Z,100546.53
2022-07-25T17:05:23.367Z,100557.00
2022-07-25T17:07:59.019Z,100553.66
2022-07-25T17:10:28.803Z,100567.00
2022-07-25T17:12:57.907Z,100539.03
2022-07-25T17:15:28.408Z,100604.56
2022-07-25T17:17:57.337Z,100619.47
2022-07-25T17:20:26.132Z,100621.13
2022-07-25T17:22:54.993Z,100622.81
2022-07-25T17:25:23.991Z,100618.13
2022-07-25T17:27:52.930Z,100620.88
2022-07-25T17:30:21.917Z,100617.03
2022-07-25T17:32:56.048Z,100617.28
2022-07-25T17:35:24.923Z,100633.03
2022-07-25T17:37:53.765Z,100650.41
2022-07-25T17:40:22.681Z,100668.88
2022-07-25T17:42:51.514Z,100687.63
2022-07-25T17:45:20.342Z,100698.34
2022-07-25T17:47:49.171Z,100696.66
2022-07-25T17:50:28.603Z,100694.97
2022-07-25T17:52:59.872Z,100653.13
2022-07-25T17:55:29.323Z,100682.19
2022-07-25T17:57:59.851Z,100686.31
2022-07-25T18:00:28.765Z,100687.97
2022-07-25T18:02:57.636Z,100681.66
2022-07-25T18:05:28.066Z,100689.19
2022-07-25T18:07:57.020Z,100687.78
2022-07-25T18:10:25.828Z,100692.50
2022-07-25T18:12:54.739Z,100689.53
2022-07-25T18:15:23.814Z,100685.38
2022-07-25T18:17:53.153Z,100686.78
2022-07-25T18:20:21.927Z,100695.41
2022-07-25T18:22:52.256Z,100697.91
2022-07-25T18:25:21.149Z,100688.56
2022-07-25T18:27:50.038Z,100690.53
2022-07-25T18:30:18.885Z,100700.22
2022-07-25T18:32:47.844Z,100702.72
2022-07-25T18:35:16.639Z,100695.31
2022-07-25T18:37:45.347Z,100704.16
2022-07-25T18:40:15.919Z,100708.34
2022-07-25T18:42:44.837Z,100706.16
2022-07-25T18:45:14.139Z,100710.31
2022-07-25T18:47:43.143Z,100692.41
2022-07-25T18:50:12.432Z,100701.25
2022-07-25T18:52:41.233Z,100702.06
2022-07-25T18:55:11.164Z,100705.16
2022-07-25T18:57:41.439Z,100709.34
2022-07-25T19:00:12.152Z,100694.47
2022-07-25T19:02:40.935Z,100702.44
2022-07-25T19:05:10.981Z,100708.25
2022-07-25T19:07:40.709Z,100711.31
2022-07-25T19:10:10.373Z,100690.94
2022-07-25T19:12:41.081Z,100708.06
2022-07-25T19:15:10.454Z,100674.72
2022-07-25T19:17:39.308Z,100713.06
2022-07-25T19:20:09.626Z,100707.31
2022-07-25T19:22:38.511Z,100712.28
2022-07-25T19:25:08.660Z,100718.34
2022-07-25T19:27:37.523Z,100721.09
2022-07-25T19:30:15.272Z,100718.34
2022-07-25T19:32:46.548Z,100722.50
2022-07-25T19:35:15.539Z,100718.66
2022-07-25T19:37:44.440Z,100717.28
2022-07-25T19:40:14.083Z,100714.78
2022-07-25T19:42:43.418Z,100729.69
2022-07-25T19:45:13.878Z,100737.41
2022-07-25T19:47:42.752Z,100741.56
2022-07-25T19:50:11.784Z,100751.47
2022-07-25T19:52:40.737Z,100758.38
2022-07-25T19:55:10.224Z,100754.50
2022-07-25T19:57:39.183Z,100758.94
2022-07-25T20:00:09.024Z,100773.25
2022-07-25T20:02:43.434Z,100764.69
2022-07-25T20:05:12.529Z,100768.53
2022-07-25T20:07:41.447Z,100764.13
2022-07-25T20:10:11.614Z,100785.91
2022-07-25T20:12:42.177Z,100787.56
2022-07-25T20:15:11.390Z,100788.38
2022-07-25T20:17:41.847Z,100793.91
2022-07-25T20:20:11.865Z,100796.38
2022-07-25T20:22:42.211Z,100807.66
2022-07-25T20:25:14.221Z,100777.28
2022-07-25T20:27:43.353Z,100815.56
2022-07-25T20:30:13.547Z,100806.47
2022-07-25T20:32:45.011Z,100811.38
2022-07-25T20:35:14.079Z,100817.97
2022-07-25T20:37:42.871Z,100824.84
2022-07-25T20:40:13.419Z,100806.94
2022-07-25T20:42:42.482Z,100808.03
2022-07-25T20:45:12.169Z,100805.50
2022-07-25T20:47:41.141Z,100817.34
2022-07-25T20:50:11.935Z,100815.69
2022-07-25T20:52:40.932Z,100822.81
2022-07-25T20:55:10.412Z,100829.97
2022-07-25T20:57:39.280Z,100834.88
2022-07-25T21:00:09.342Z,100838.69
2022-07-25T21:02:38.274Z,100838.97
2022-07-25T21:05:09.108Z,100831.78
2022-07-25T21:07:40.541Z,100853.00
2022-07-25T21:10:10.772Z,100845.25
2022-07-25T21:12:39.997Z,100846.56
2022-07-25T21:15:09.916Z,100842.16
2022-07-25T21:17:38.864Z,100843.47
2022-07-25T21:20:09.959Z,100840.41
2022-07-25T21:22:40.859Z,100837.28
2022-07-25T21:25:10.980Z,100840.63
2022-07-25T21:27:40.439Z,100787.72
2022-07-25T21:30:11.903Z,100852.34
2022-07-25T21:32:42.284Z,100847.38
2022-07-25T21:35:11.371Z,100852.31
2022-07-25T21:37:41.808Z,100846.81
2022-07-25T21:40:11.673Z,100850.91
2022-07-25T21:42:40.697Z,100808.81
2022-07-25T21:45:09.888Z,100867.97
2022-07-25T21:47:38.671Z,100877.63
2022-07-25T21:50:25.994Z,100873.53
2022-07-25T21:52:56.516Z,100877.91
2022-07-25T21:55:25.572Z,100882.53
2022-07-25T21:57:54.652Z,100889.72
2022-07-25T22:00:24.057Z,100896.56
2022-07-25T22:02:52.836Z,100892.66
2022-07-25T22:05:21.832Z,100903.09
2022-07-25T22:07:50.865Z,100903.78
2022-07-25T22:10:22.238Z,100902.88
2022-07-25T22:12:51.301Z,100912.81
2022-07-25T22:15:20.068Z,100917.22
2022-07-25T22:17:50.172Z,100911.72
2022-07-25T22:20:20.333Z,100927.88
2022-07-25T22:22:49.834Z,100901.00
2022-07-25T22:25:18.897Z,100924.53
2022-07-25T22:27:49.117Z,100936.09
2022-07-25T22:30:19.380Z,100942.13
2022-07-25T22:32:48.976Z,100937.66
2022-07-25T22:35:18.539Z,100932.28
2022-07-25T22:37:47.685Z,100936.91
2022-07-25T22:40:16.590Z,100934.84
2022-07-25T22:42:45.454Z,100937.16
2022-07-25T22:45:15.815Z,100936.25
2022-07-25T22:47:44.650Z,100937.09
2022-07-25T22:50:13.544Z,100941.25
2022-07-25T22:52:42.444Z,100933.84
2022-07-25T22:55:11.713Z,100945.16
2022-07-25T22:57:40.527Z,100949.59
2022-07-25T23:00:11.769Z,100946.84
2022-07-25T23:02:42.348Z,100947.06
2022-07-25T23:05:11.800Z,100942.91
2022-07-25T23:07:40.983Z,100947.81
2022-07-25T23:10:11.165Z,100944.00
2022-07-25T23:12:40.094Z,100953.56
2022-07-25T23:15:10.120Z,100944.22
2022-07-25T23:17:40.027Z,100952.13
2022-07-25T23:20:12.261Z,100950.47
2022-07-25T23:22:41.148Z,100950.72
2022-07-25T23:25:11.985Z,100950.97
2022-07-25T23:27:41.187Z,100951.47
2022-07-25T23:30:11.115Z,100955.22
2022-07-25T23:32:40.000Z,100961.22
2022-07-25T23:35:11.971Z,100950.59
2022-07-25T23:37:40.833Z,100956.34
2022-07-25T23:40:10.576Z,100965.47
2022-07-25T23:42:39.410Z,100962.91
2022-07-25T23:45:09.476Z,100966.13
2022-07-25T23:47:40.873Z,100965.38
2022-07-25T23:50:13.275Z,100973.03
2022-07-25T23:52:42.162Z,100973.13
2022-07-25T23:55:11.660Z,100972.78
2022-07-25T23:57:40.503Z,100978.91
